sensor_id;sensor_type;location;lat;lon;timestamp;pressure;altitude;pressure_sealevel;temperature;humidity
7832;BME280;3961;42.058;25.586;2023-05-22T00:01:14;64077.41;;;16.44;100.00
7832;BME280;3961;42.058;25.586;2023-05-22T00:03:46;64072.75;;;16.40;100.00
7832;BME280;3961;42.058;25.586;2023-05-22T00:06:13;64065.88;;;16.41;100.00
7832;BME280;3961;42.058;25.586;2023-05-22T00:08:39;64068.91;;;16.39;100.00
7832;BME280;3961;42.058;25.586;2023-05-22T00:11:04;64069.25;;;16.37;100.00
7832;BME280;3961;42.058;25.586;2023-05-22T00:13:30;64074.63;;;16.37;100.00
7832;BME280;3961;42.058;25.586;2023-05-22T00:15:56;64072.28;;;16.35;100.00
7832;BME280;3961;42.058;25.586;2023-05-22T00:18:22;64055.75;;;16.30;100.00
7832;BME280;3961;42.058;25.586;2023-05-22T00:20:49;64065.78;;;16.34;100.00
7832;BME280;3961;42.058;25.586;2023-05-22T00:23:15;64061.94;;;16.33;100.00
7832;BME280;3961;42.058;25.586;2023-05-22T00:25:41;64061.13;;;16.30;100.00
7832;BME280;3961;42.058;25.586;2023-05-22T00:28:06;64038.22;;;16.07;100.00
7832;BME280;3961;42.058;25.586;2023-05-22T00:30:32;63988.72;;;15.69;100.00
7832;BME280;3961;42.058;25.586;2023-05-22T00:32:57;64027.41;;;16.00;100.00
7832;BME280;3961;42.058;25.586;2023-05-22T00:35:23;64031.72;;;16.06;100.00
7832;BME280;3961;42.058;25.586;2023-05-22T00:37:49;64052.75;;;16.20;100.00
7832;BME280;3961;42.058;25.586;2023-05-22T00:40:15;64046.94;;;16.15;100.00
7832;BME280;3961;42.058;25.586;2023-05-22T00:42:43;64042.19;;;16.16;100.00
7832;BME280;3961;42.058;25.586;2023-05-22T00:45:13;64047.19;;;16.18;100.00
7832;BME280;3961;42.058;25.586;2023-05-22T00:47:39;64020.91;;;15.99;100.00
7832;BME280;3961;42.058;25.586;2023-05-22T00:50:06;64032.28;;;16.07;100.00
7832;BME280;3961;42.058;25.586;2023-05-22T00:52:33;64028.22;;;16.03;100.00
7832;BME280;3961;42.058;25.586;2023-05-22T00:54:59;63998.03;;;15.77;100.00
7832;BME280;3961;42.058;25.586;2023-05-22T00:57:25;64039.03;;;16.10;100.00
7832;BME280;3961;42.058;25.586;2023-05-22T00:59:51;64024.97;;;16.03;100.00
7832;BME280;3961;42.058;25.586;2023-05-22T01:02:17;64047.19;;;16.18;100.00
7832;BME280;3961;42.058;25.586;2023-05-22T01:04:46;64046.59;;;16.17;100.00
7832;BME280;3961;42.058;25.586;2023-05-22T01:07:13;64044.28;;;16.15;100.00
7832;BME280;3961;42.058;25.586;2023-05-22T01:09:41;64031.13;;;16.06;100.00
7832;BME280;3961;42.058;25.586;2023-05-22T01:18:14;64022.19;;;15.96;100.00
7832;BME280;3961;42.058;25.586;2023-05-22T01:20:53;64015.22;;;15.90;100.00
7832;BME280;3961;42.058;25.586;2023-05-22T01:31:40;64008.25;;;15.84;100.00
7832;BME280;3961;42.058;25.586;2023-05-22T01:34:10;64004.66;;;15.85;100.00
7832;BME280;3961;42.058;25.586;2023-05-22T01:36:37;64020.66;;;15.97;100.00
7832;BME280;3961;42.058;25.586;2023-05-22T01:39:03;64021.59;;;15.95;100.00
7832;BME280;3961;42.058;25.586;2023-05-22T01:41:33;64025.09;;;15.98;100.00
7832;BME280;3961;42.058;25.586;2023-05-22T01:44:00;64023.56;;;15.99;100.00
7832;BME280;3961;42.058;25.586;2023-05-22T01:46:29;64024.16;;;16.00;100.00
7832;BME280;3961;42.058;25.586;2023-05-22T01:48:55;64008.13;;;15.88;100.00
7832;BME280;3961;42.058;25.586;2023-05-22T01:51:38;64028.34;;;15.99;100.00
7832;BME280;3961;42.058;25.586;2023-05-22T01:54:13;64020.44;;;15.94;100.00
7832;BME280;3961;42.058;25.586;2023-05-22T02:01:48;64007.09;;;15.83;100.00
7832;BME280;3961;42.058;25.586;2023-05-22T02:04:18;64018.13;;;15.92;100.00
7832;BME280;3961;42.058;25.586;2023-05-22T02:06:44;64022.31;;;15.91;100.00
7832;BME280;3961;42.058;25.586;2023-05-22T02:09:11;64033.00;;;16.03;100.00
7832;BME280;3961;42.058;25.586;2023-05-22T02:11:39;64030.91;;;16.03;100.00
7832;BME280;3961;42.058;25.586;2023-05-22T02:14:05;64003.84;;;15.82;100.00
7832;BME280;3961;42.058;25.586;2023-05-22T02:16:33;64017.56;;;15.92;100.00
7832;BME280;3961;42.058;25.586;2023-05-22T02:19:00;64010.59;;;15.86;100.00
7832;BME280;3961;42.058;25.586;2023-05-22T02:21:34;64012.75;;;15.92;100.00
7832;BME280;3961;42.058;25.586;2023-05-22T02:24:01;64007.09;;;15.83;100.00
7832;BME280;3961;42.058;25.586;2023-05-22T02:26:27;63992.22;;;15.72;100.00
7832;BME280;3961;42.058;25.586;2023-05-22T02:28:52;64010.81;;;15.88;100.00
7832;BME280;3961;42.058;25.586;2023-05-22T02:31:18;63993.72;;;15.71;100.00
7832;BME280;3961;42.058;25.586;2023-05-22T02:33:44;63994.31;;;15.71;100.00
7832;BME280;3961;42.058;25.586;2023-05-22T02:36:09;64003.47;;;15.84;100.00
7832;BME280;3961;42.058;25.586;2023-05-22T02:38:37;64016.41;;;15.91;100.00
7832;BME280;3961;42.058;25.586;2023-05-22T02:41:03;64012.31;;;15.87;100.00
7832;BME280;3961;42.058;25.586;2023-05-22T02:43:28;64012.31;;;15.87;100.00
7832;BME280;3961;42.058;25.586;2023-05-22T02:45:54;64010.81;;;15.88;100.00
7832;BME280;3961;42.058;25.586;2023-05-22T02:48:20;63996.28;;;15.75;100.00
7832;BME280;3961;42.058;25.586;2023-05-22T02:50:45;63984.06;;;15.65;100.00
7832;BME280;3961;42.058;25.586;2023-05-22T02:53:13;64004.78;;;15.81;100.00
7832;BME280;3961;42.058;25.586;2023-05-22T02:55:40;63980.00;;;15.61;100.00
7832;BME280;3961;42.058;25.586;2023-05-22T02:58:06;64007.44;;;15.81;100.00
7832;BME280;3961;42.058;25.586;2023-05-22T03:00:38;64000.34;;;15.79;100.00
7832;BME280;3961;42.058;25.586;2023-05-22T03:03:04;64006.28;;;15.79;100.00
7832;BME280;3961;42.058;25.586;2023-05-22T03:05:30;64006.16;;;15.84;100.00
7832;BME280;3961;42.058;25.586;2023-05-22T03:07:56;64003.59;;;15.79;100.00
7832;BME280;3961;42.058;25.586;2023-05-22T03:10:23;63993.97;;;15.73;100.00
7832;BME280;3961;42.058;25.586;2023-05-22T03:12:49;64004.53;;;15.78;100.00
7832;BME280;3961;42.058;25.586;2023-05-22T03:15:16;63997.78;;;15.74;100.00
7832;BME280;3961;42.058;25.586;2023-05-22T03:17:42;63998.03;;;15.77;100.00
7832;BME280;3961;42.058;25.586;2023-05-22T03:20:08;63998.03;;;15.77;100.00
7832;BME280;3961;42.058;25.586;2023-05-22T03:22:34;63996.28;;;15.75;100.00
7832;BME280;3961;42.058;25.586;2023-05-22T03:24:59;63985.81;;;15.66;100.00
7832;BME280;3961;42.058;25.586;2023-05-22T03:27:26;63998.03;;;15.77;100.00
7832;BME280;3961;42.058;25.586;2023-05-22T03:29:51;64011.41;;;15.89;100.00
7832;BME280;3961;42.058;25.586;2023-05-22T03:32:17;64018.69;;;15.93;100.00
7832;BME280;3961;42.058;25.586;2023-05-22T03:34:42;64024.63;;;15.93;100.00
7832;BME280;3961;42.058;25.586;2023-05-22T03:37:08;64017.75;;;15.94;100.00
7832;BME280;3961;42.058;25.586;2023-05-22T03:39:34;64020.09;;;15.96;100.00
7832;BME280;3961;42.058;25.586;2023-05-22T03:42:00;64039.63;;;16.11;100.00
7832;BME280;3961;42.058;25.586;2023-05-22T03:44:26;64045.22;;;16.13;100.00
7832;BME280;3961;42.058;25.586;2023-05-22T03:46:51;64029.75;;;16.02;100.00
7832;BME280;3961;42.058;25.586;2023-05-22T03:49:17;64027.66;;;16.03;100.00
7832;BME280;3961;42.058;25.586;2023-05-22T03:51:42;64029.75;;;16.02;100.00
7832;BME280;3961;42.058;25.586;2023-05-22T03:54:08;64033.22;;;16.05;100.00
7832;BME280;3961;42.058;25.586;2023-05-22T03:56:34;64038.47;;;16.10;100.00
7832;BME280;3961;42.058;25.586;2023-05-22T03:58:59;64022.75;;;15.96;100.00
7832;BME280;3961;42.058;25.586;2023-05-22T04:01:25;64039.97;;;16.09;100.00
7832;BME280;3961;42.058;25.586;2023-05-22T04:03:51;64043.47;;;16.12;100.00
7832;BME280;3961;42.058;25.586;2023-05-22T04:06:17;64029.38;;;16.04;100.00
7832;BME280;3961;42.058;25.586;2023-05-22T04:08:47;64016.59;;;15.93;100.00
7832;BME280;3961;42.058;25.586;2023-05-22T04:11:13;64010.81;;;15.88;100.00
7832;BME280;3961;42.058;25.586;2023-05-22T04:13:43;64029.75;;;16.02;100.00
7832;BME280;3961;42.058;25.586;2023-05-22T04:16:09;64051.84;;;16.22;100.00
7832;BME280;3961;42.058;25.586;2023-05-22T04:18:34;64046.03;;;16.17;100.00
7832;BME280;3961;42.058;25.586;2023-05-22T04:21:00;64049.50;;;16.20;100.00
7832;BME280;3961;42.058;25.586;2023-05-22T04:23:27;64055.53;;;16.27;100.00
7832;BME280;3961;42.058;25.586;2023-05-22T04:25:52;64075.66;;;16.42;100.00
7832;BME280;3961;42.058;25.586;2023-05-22T04:28:18;64079.38;;;16.48;100.00
7832;BME280;3961;42.058;25.586;2023-05-22T04:30:47;64087.53;;;16.55;100.00
7832;BME280;3961;42.058;25.586;2023-05-22T04:33:13;64087.53;;;16.55;100.00
7832;BME280;3961;42.058;25.586;2023-05-22T04:35:38;64094.63;;;16.57;100.00
7832;BME280;3961;42.058;25.586;2023-05-22T04:38:05;64083.22;;;16.49;100.00
7832;BME280;3961;42.058;25.586;2023-05-22T04:40:30;64095.41;;;16.60;100.00
7832;BME280;3961;42.058;25.586;2023-05-22T04:42:58;64097.41;;;16.64;100.00
7832;BME280;3961;42.058;25.586;2023-05-22T04:45:28;64079.72;;;16.46;100.00
7832;BME280;3961;42.058;25.586;2023-05-22T04:47:55;64118.00;;;16.84;100.00
7832;BME280;3961;42.058;25.586;2023-05-22T04:50:20;64133.22;;;16.93;100.00
7832;BME280;3961;42.058;25.586;2023-05-22T04:52:46;64148.72;;;17.04;100.00
7832;BME280;3961;42.058;25.586;2023-05-22T04:55:12;64140.44;;;17.01;100.00
7832;BME280;3961;42.058;25.586;2023-05-22T04:57:41;64148.94;;;17.06;100.00
7832;BME280;3961;42.058;25.586;2023-05-22T05:00:10;64100.31;;;16.66;100.00
7832;BME280;3961;42.058;25.586;2023-05-22T05:02:37;64147.78;;;17.05;100.00
7832;BME280;3961;42.058;25.586;2023-05-22T05:05:03;64145.44;;;17.03;100.00
7832;BME280;3961;42.058;25.586;2023-05-22T05:07:28;64136.72;;;16.96;100.00
7832;BME280;3961;42.058;25.586;2023-05-22T05:09:53;64166.59;;;17.24;100.00
7832;BME280;3961;42.058;25.586;2023-05-22T05:12:19;64178.59;;;17.32;100.00
7832;BME280;3961;42.058;25.586;2023-05-22T05:14:44;64180.56;;;17.36;100.00
7832;BME280;3961;42.058;25.586;2023-05-22T05:17:10;64179.19;;;17.33;100.00
7832;BME280;3961;42.058;25.586;2023-05-22T05:19:36;64193.97;;;17.48;100.00
7832;BME280;3961;42.058;25.586;2023-05-22T05:22:01;64195.72;;;17.50;100.00
7832;BME280;3961;42.058;25.586;2023-05-22T05:24:27;64223.22;;;17.69;100.00
7832;BME280;3961;42.058;25.586;2023-05-22T05:26:53;64231.00;;;17.78;100.00
7832;BME280;3961;42.058;25.586;2023-05-22T05:29:18;64190.25;;;17.42;100.00
7832;BME280;3961;42.058;25.586;2023-05-22T05:31:44;64242.63;;;17.88;100.00
7832;BME280;3961;42.058;25.586;2023-05-22T05:34:09;64230.06;;;17.79;100.00
7832;BME280;3961;42.058;25.586;2023-05-22T05:36:35;64243.22;;;17.89;100.00
7832;BME280;3961;42.058;25.586;2023-05-22T05:39:01;64230.44;;;17.77;100.00
7832;BME280;3961;42.058;25.586;2023-05-22T05:41:27;64247.53;;;17.95;100.00
7832;BME280;3961;42.058;25.586;2023-05-22T05:43:52;64254.50;;;18.01;100.00
7832;BME280;3961;42.058;25.586;2023-05-22T05:46:18;64284.56;;;18.25;100.00
7832;BME280;3961;42.058;25.586;2023-05-22T05:48:44;64298.78;;;18.39;100.00
7832;BME280;3961;42.058;25.586;2023-05-22T05:51:09;64316.00;;;18.52;100.00
7832;BME280;3961;42.058;25.586;2023-05-22T05:53:35;64335.84;;;18.69;100.00
7832;BME280;3961;42.058;25.586;2023-05-22T05:56:02;64336.44;;;18.70;100.00
7832;BME280;3961;42.058;25.586;2023-05-22T05:58:27;64370.00;;;18.97;100.00
7832;BME280;3961;42.058;25.586;2023-05-22T06:00:53;64378.75;;;19.04;100.00
7832;BME280;3961;42.058;25.586;2023-05-22T06:03:18;64375.50;;;19.04;100.00
7832;BME280;3961;42.058;25.586;2023-05-22T06:05:44;64389.09;;;19.18;100.00
7832;BME280;3961;42.058;25.586;2023-05-22T06:08:12;64443.13;;;19.63;100.00
7832;BME280;3961;42.058;25.586;2023-05-22T06:10:38;64469.97;;;19.86;100.00
7832;BME280;3961;42.058;25.586;2023-05-22T06:13:04;64504.19;;;20.13;100.00
7832;BME280;3961;42.058;25.586;2023-05-22T06:15:29;64531.63;;;20.37;100.00
7832;BME280;3961;42.058;25.586;2023-05-22T06:17:55;64543.16;;;20.52;100.00
7832;BME280;3961;42.058;25.586;2023-05-22T06:20:22;64569.00;;;20.70;100.00
7832;BME280;3961;42.058;25.586;2023-05-22T06:22:49;64568.06;;;20.71;100.00
7832;BME280;3961;42.058;25.586;2023-05-22T06:25:15;64594.91;;;20.95;100.00
7832;BME280;3961;42.058;25.586;2023-05-22T06:27:41;64611.84;;;21.09;100.00
7832;BME280;3961;42.058;25.586;2023-05-22T06:30:08;64613.63;;;21.11;100.00
7832;BME280;3961;42.058;25.586;2023-05-22T06:32:33;64629.97;;;21.25;100.00
7832;BME280;3961;42.058;25.586;2023-05-22T06:34:59;64621.53;;;21.16;100.00
7832;BME280;3961;42.058;25.586;2023-05-22T06:37:25;64622.94;;;21.19;100.00
7832;BME280;3961;42.058;25.586;2023-05-22T06:39:50;64630.56;;;21.26;100.00
7832;BME280;3961;42.058;25.586;2023-05-22T06:42:15;64634.66;;;21.29;100.00
7832;BME280;3961;42.058;25.586;2023-05-22T06:44:41;64608.56;;;21.09;100.00
7832;BME280;3961;42.058;25.586;2023-05-22T06:47:07;64642.84;;;21.36;100.00
7832;BME280;3961;42.058;25.586;2023-05-22T06:49:32;64648.09;;;21.41;100.00
7832;BME280;3961;42.058;25.586;2023-05-22T06:51:58;64680.25;;;21.69;100.00
7832;BME280;3961;42.058;25.586;2023-05-22T06:54:23;64670.88;;;21.61;100.00
7832;BME280;3961;42.058;25.586;2023-05-22T06:56:53;64693.91;;;21.83;100.00
7832;BME280;3961;42.058;25.586;2023-05-22T06:59:19;64705.50;;;21.86;98.88
7832;BME280;3961;42.058;25.586;2023-05-22T07:01:44;64700.31;;;21.89;100.00
7832;BME280;3961;42.058;25.586;2023-05-22T07:04:10;64683.16;;;21.71;98.00
7832;BME280;3961;42.058;25.586;2023-05-22T07:06:37;64711.00;;;21.93;98.95
7832;BME280;3961;42.058;25.586;2023-05-22T07:09:07;64697.53;;;21.82;100.00
7832;BME280;3961;42.058;25.586;2023-05-22T07:11:33;64725.06;;;22.05;98.90
7832;BME280;3961;42.058;25.586;2023-05-22T07:14:00;64741.66;;;22.22;97.92
7832;BME280;3961;42.058;25.586;2023-05-22T07:16:26;64738.28;;;22.15;97.37
7832;BME280;3961;42.058;25.586;2023-05-22T07:18:54;64745.53;;;22.23;96.58
7832;BME280;3961;42.058;25.586;2023-05-22T07:21:19;64765.25;;;22.45;97.42
7832;BME280;3961;42.058;25.586;2023-05-22T07:23:48;64813.75;;;22.80;96.95
7832;BME280;3961;42.058;25.586;2023-05-22T07:26:14;64851.06;;;23.17;95.95
7832;BME280;3961;42.058;25.586;2023-05-22T07:28:39;64893.84;;;23.54;94.06
7832;BME280;3961;42.058;25.586;2023-05-22T07:31:05;64906.97;;;23.68;93.83
7832;BME280;3961;42.058;25.586;2023-05-22T07:33:30;64909.31;;;23.70;92.75
7832;BME280;3961;42.058;25.586;2023-05-22T07:35:56;64930.75;;;23.86;91.36
7832;BME280;3961;42.058;25.586;2023-05-22T07:38:22;64950.44;;;24.01;90.46
7832;BME280;3961;42.058;25.586;2023-05-22T07:40:47;64977.06;;;24.26;87.73
7832;BME280;3961;42.058;25.586;2023-05-22T07:43:13;64982.69;;;24.29;88.36
7832;BME280;3961;42.058;25.586;2023-05-22T07:45:41;65082.03;;;25.17;86.31
7832;BME280;3961;42.058;25.586;2023-05-22T07:48:06;65127.78;;;25.57;82.66
7832;BME280;3961;42.058;25.586;2023-05-22T07:50:32;65149.28;;;25.73;78.46
7832;BME280;3961;42.058;25.586;2023-05-22T07:52:58;65131.31;;;25.60;77.15
7832;BME280;3961;42.058;25.586;2023-05-22T07:55:23;65085.31;;;25.18;73.33
7832;BME280;3961;42.058;25.586;2023-05-22T07:57:49;65015.53;;;24.57;72.39
7832;BME280;3961;42.058;25.586;2023-05-22T08:00:17;64982.69;;;24.29;73.31
7832;BME280;3961;42.058;25.586;2023-05-22T08:02:43;64981.16;;;24.30;75.68
7832;BME280;3961;42.058;25.586;2023-05-22T08:05:09;65026.09;;;24.66;73.78
7832;BME280;3961;42.058;25.586;2023-05-22T08:07:35;65032.94;;;24.77;76.86
7832;BME280;3961;42.058;25.586;2023-05-22T08:10:07;65012.38;;;24.52;71.98
7832;BME280;3961;42.058;25.586;2023-05-22T08:12:37;65042.69;;;24.83;73.56
7832;BME280;3961;42.058;25.586;2023-05-22T08:15:03;64912.78;;;23.73;72.97
7832;BME280;3961;42.058;25.586;2023-05-22T08:17:29;64964.50;;;24.13;74.13
7832;BME280;3961;42.058;25.586;2023-05-22T08:19:54;65036.41;;;24.73;73.29
7832;BME280;3961;42.058;25.586;2023-05-22T08:22:20;65002.47;;;24.51;72.14
7832;BME280;3961;42.058;25.586;2023-05-22T08:24:45;64971.91;;;24.17;75.71
7832;BME280;3961;42.058;25.586;2023-05-22T08:27:11;64939.69;;;23.89;73.32
7832;BME280;3961;42.058;25.586;2023-05-22T08:29:37;64979.19;;;24.26;74.27
7832;BME280;3961;42.058;25.586;2023-05-22T08:32:02;65017.88;;;24.59;73.44
7832;BME280;3961;42.058;25.586;2023-05-22T08:34:28;65024.91;;;24.65;72.18
7832;BME280;3961;42.058;25.586;2023-05-22T08:36:53;64960.03;;;24.11;74.48
7832;BME280;3961;42.058;25.586;2023-05-22T08:39:19;64936.38;;;23.89;74.79
7832;BME280;3961;42.058;25.586;2023-05-22T08:41:45;64947.16;;;24.00;74.99
7832;BME280;3961;42.058;25.586;2023-05-22T08:44:12;64963.91;;;24.12;75.64
7832;BME280;3961;42.058;25.586;2023-05-22T08:46:38;64931.31;;;23.87;75.58
7832;BME280;3961;42.058;25.586;2023-05-22T08:49:07;64887.75;;;23.46;77.23
7832;BME280;3961;42.058;25.586;2023-05-22T08:51:37;64895.38;;;23.53;76.14
7832;BME280;3961;42.058;25.586;2023-05-22T08:54:06;64844.41;;;23.09;76.80
7832;BME280;3961;42.058;25.586;2023-05-22T08:56:33;64873.34;;;23.36;76.27
7832;BME280;3961;42.058;25.586;2023-05-22T08:58:59;64801.47;;;22.69;75.77
7832;BME280;3961;42.058;25.586;2023-05-22T09:01:29;64873.94;;;23.37;75.18
7832;BME280;3961;42.058;25.586;2023-05-22T09:03:59;64908.72;;;23.69;76.15
7832;BME280;3961;42.058;25.586;2023-05-22T09:06:26;64917.47;;;23.77;75.51
7832;BME280;3961;42.058;25.586;2023-05-22T09:08:55;64924.88;;;23.81;72.98
7832;BME280;3961;42.058;25.586;2023-05-22T09:11:22;64896.78;;;23.57;71.27
7832;BME280;3961;42.058;25.586;2023-05-22T09:13:48;64852.25;;;23.18;70.26
7832;BME280;3961;42.058;25.586;2023-05-22T09:16:15;64830.38;;;22.97;73.09
7832;BME280;3961;42.058;25.586;2023-05-22T09:18:41;64830.59;;;22.99;71.63
7832;BME280;3961;42.058;25.586;2023-05-22T09:21:07;64869.81;;;23.33;69.94
7832;BME280;3961;42.058;25.586;2023-05-22T09:23:33;64885.97;;;23.45;70.66
7832;BME280;3961;42.058;25.586;2023-05-22T09:26:00;64940.25;;;23.90;71.50
7832;BME280;3961;42.058;25.586;2023-05-22T09:28:27;64943.41;;;23.95;70.80
7832;BME280;3961;42.058;25.586;2023-05-22T09:30:57;64932.72;;;23.90;70.95
7832;BME280;3961;42.058;25.586;2023-05-22T09:33:22;64937.34;;;23.87;68.43
7832;BME280;3961;42.058;25.586;2023-05-22T09:35:50;64913.78;;;23.71;67.59
7832;BME280;3961;42.058;25.586;2023-05-22T09:38:17;64945.41;;;23.99;67.38
7832;BME280;3961;42.058;25.586;2023-05-22T09:40:42;64963.53;;;24.15;67.04
7832;BME280;3961;42.058;25.586;2023-05-22T09:43:08;65012.66;;;24.62;65.63
7832;BME280;3961;42.058;25.586;2023-05-22T09:45:35;64974.47;;;24.22;65.07
7832;BME280;3961;42.058;25.586;2023-05-22T09:48:04;65015.16;;;24.59;66.30
7832;BME280;3961;42.058;25.586;2023-05-22T09:50:31;65025.72;;;24.68;64.09
7832;BME280;3961;42.058;25.586;2023-05-22T09:53:00;64941.28;;;23.95;64.04
7832;BME280;3961;42.058;25.586;2023-05-22T09:55:27;64972.13;;;24.20;64.37
7832;BME280;3961;42.058;25.586;2023-05-22T09:57:53;64998.72;;;24.45;63.77
7832;BME280;3961;42.058;25.586;2023-05-22T10:00:21;64991.09;;;24.38;64.22
7832;BME280;3961;42.058;25.586;2023-05-22T10:02:59;64972.94;;;24.23;66.38
7832;BME280;3961;42.058;25.586;2023-05-22T10:05:31;64983.13;;;24.34;66.27
7832;BME280;3961;42.058;25.586;2023-05-22T10:08:09;65004.97;;;24.48;66.67
7832;BME280;3961;42.058;25.586;2023-05-22T10:10:36;65008.47;;;24.51;67.22
7832;BME280;3961;42.058;25.586;2023-05-22T10:13:04;64987.38;;;24.33;66.81
7832;BME280;3961;42.058;25.586;2023-05-22T10:15:30;64992.06;;;24.37;67.24
7832;BME280;3961;42.058;25.586;2023-05-22T10:17:57;64929.13;;;23.80;68.16
7832;BME280;3961;42.058;25.586;2023-05-22T10:20:24;64869.38;;;23.28;69.64
7832;BME280;3961;42.058;25.586;2023-05-22T10:22:52;64875.47;;;23.36;70.98
7832;BME280;3961;42.058;25.586;2023-05-22T10:25:18;64853.28;;;23.24;71.13
7832;BME280;3961;42.058;25.586;2023-05-22T10:27:47;64870.19;;;23.31;71.39
7832;BME280;3961;42.058;25.586;2023-05-22T10:33:40;64928.63;;;23.87;68.83
7832;BME280;3961;42.058;25.586;2023-05-22T10:36:09;64969.56;;;24.15;69.87
7832;BME280;3961;42.058;25.586;2023-05-22T10:38:52;64990.16;;;24.40;68.93
7832;BME280;3961;42.058;25.586;2023-05-22T10:41:24;65001.66;;;24.48;69.08
7832;BME280;3961;42.058;25.586;2023-05-22T10:43:50;65020.22;;;24.61;68.74
7832;BME280;3961;42.058;25.586;2023-05-22T10:46:16;65048.94;;;24.86;68.01
7832;BME280;3961;42.058;25.586;2023-05-22T10:48:46;65070.66;;;25.05;68.68
7832;BME280;3961;42.058;25.586;2023-05-22T10:51:14;65081.81;;;25.15;68.11
7832;BME280;3961;42.058;25.586;2023-05-22T10:53:43;65046.59;;;24.84;66.93
7832;BME280;3961;42.058;25.586;2023-05-22T10:56:14;64961.34;;;24.08;69.64
7832;BME280;3961;42.058;25.586;2023-05-22T10:58:44;64978.34;;;24.23;68.15
7832;BME280;3961;42.058;25.586;2023-05-22T11:01:20;64977.84;;;24.29;69.94
7832;BME280;3961;42.058;25.586;2023-05-22T11:06:34;65105.84;;;25.35;67.81
7832;BME280;3961;42.058;25.586;2023-05-22T11:11:44;65162.22;;;25.84;62.44
7832;BME280;3961;42.058;25.586;2023-05-22T11:14:10;65057.03;;;24.98;66.07
7832;BME280;3961;42.058;25.586;2023-05-22T11:16:37;65037.78;;;24.76;66.74
7832;BME280;3961;42.058;25.586;2023-05-22T11:19:07;65055.41;;;24.92;67.61
7832;BME280;3961;42.058;25.586;2023-05-22T11:21:35;65075.13;;;25.06;66.41
7832;BME280;3961;42.058;25.586;2023-05-22T11:24:01;65064.03;;;25.04;65.65
7832;BME280;3961;42.058;25.586;2023-05-22T11:26:26;65056.19;;;24.95;67.26
7832;BME280;3961;42.058;25.586;2023-05-22T11:28:52;65023.38;;;24.66;66.75
7832;BME280;3961;42.058;25.586;2023-05-22T11:31:19;65096.47;;;25.27;67.22
7832;BME280;3961;42.058;25.586;2023-05-22T11:33:45;65173.22;;;25.98;66.39
7832;BME280;3961;42.058;25.586;2023-05-22T11:36:12;65207.44;;;26.23;65.09
7832;BME280;3961;42.058;25.586;2023-05-22T11:38:39;65221.53;;;26.35;64.13
7832;BME280;3961;42.058;25.586;2023-05-22T11:41:05;65237.03;;;26.51;64.04
7832;BME280;3961;42.058;25.586;2023-05-22T11:43:32;65254.03;;;26.66;63.02
7832;BME280;3961;42.058;25.586;2023-05-22T11:46:06;65235.41;;;26.45;62.31
7832;BME280;3961;42.058;25.586;2023-05-22T11:48:33;65138.16;;;25.63;64.94
7832;BME280;3961;42.058;25.586;2023-05-22T11:50:59;65097.06;;;25.28;65.59
7832;BME280;3961;42.058;25.586;2023-05-22T11:53:24;65074.16;;;25.08;67.68
7832;BME280;3961;42.058;25.586;2023-05-22T11:55:50;65148.72;;;25.72;66.29
7832;BME280;3961;42.058;25.586;2023-05-22T11:58:20;65162.59;;;25.82;63.97
7832;BME280;3961;42.058;25.586;2023-05-22T12:00:47;65220.94;;;26.35;64.18
7832;BME280;3961;42.058;25.586;2023-05-22T12:03:12;65277.94;;;26.84;63.65
7832;BME280;3961;42.058;25.586;2023-05-22T12:05:38;65320.84;;;27.21;63.18
7832;BME280;3961;42.058;25.586;2023-05-22T12:08:03;65327.69;;;27.25;60.68
7832;BME280;3961;42.058;25.586;2023-05-22T12:10:30;65314.16;;;27.13;60.56
7832;BME280;3961;42.058;25.586;2023-05-22T12:12:55;65312.84;;;27.17;61.08
7832;BME280;3961;42.058;25.586;2023-05-22T12:15:21;65322.63;;;27.23;61.41
7832;BME280;3961;42.058;25.586;2023-05-22T12:17:48;65299.09;;;27.02;59.40
7832;BME280;3961;42.058;25.586;2023-05-22T12:20:13;65232.31;;;26.47;61.20
7832;BME280;3961;42.058;25.586;2023-05-22T12:22:39;65242.69;;;26.54;62.02
7832;BME280;3961;42.058;25.586;2023-05-22T12:25:12;65206.63;;;26.20;63.08
7832;BME280;3961;42.058;25.586;2023-05-22T12:27:39;65201.56;;;26.18;63.41
7832;BME280;3961;42.058;25.586;2023-05-22T12:30:09;65263.66;;;26.76;61.83
7832;BME280;3961;42.058;25.586;2023-05-22T12:32:38;65306.16;;;27.08;61.16
7832;BME280;3961;42.058;25.586;2023-05-22T12:35:04;65359.66;;;27.55;60.70
7832;BME280;3961;42.058;25.586;2023-05-22T12:37:32;65371.59;;;27.60;60.98
7832;BME280;3961;42.058;25.586;2023-05-22T12:40:02;65389.66;;;27.81;60.24
7832;BME280;3961;42.058;25.586;2023-05-22T12:42:28;65417.31;;;28.04;59.39
7832;BME280;3961;42.058;25.586;2023-05-22T12:44:57;65369.06;;;27.63;59.08
7832;BME280;3961;42.058;25.586;2023-05-22T12:47:24;65284.41;;;26.90;59.86
7832;BME280;3961;42.058;25.586;2023-05-22T12:49:50;65219.56;;;26.31;60.97
7832;BME280;3961;42.058;25.586;2023-05-22T12:52:16;65078.50;;;25.14;66.98
7832;BME280;3961;42.058;25.586;2023-05-22T12:54:41;64949.28;;;24.00;72.01
7832;BME280;3961;42.058;25.586;2023-05-22T12:57:07;64880.13;;;23.40;75.68
7832;BME280;3961;42.058;25.586;2023-05-22T12:59:33;64833.53;;;23.02;76.35
7832;BME280;3961;42.058;25.586;2023-05-22T13:02:02;64830.00;;;22.99;77.73
7832;BME280;3961;42.058;25.586;2023-05-22T13:04:28;64845.00;;;23.09;77.96
7832;BME280;3961;42.058;25.586;2023-05-22T13:06:54;64806.72;;;22.74;79.24
7832;BME280;3961;42.058;25.586;2023-05-22T13:09:20;64809.53;;;22.81;80.54
7832;BME280;3961;42.058;25.586;2023-05-22T13:11:46;64763.66;;;22.39;81.84
7832;BME280;3961;42.058;25.586;2023-05-22T13:14:15;64744.13;;;22.20;82.59
7832;BME280;3961;42.058;25.586;2023-05-22T13:16:41;64755.91;;;22.37;82.16
7832;BME280;3961;42.058;25.586;2023-05-22T13:19:06;64752.53;;;22.29;80.04
7832;BME280;3961;42.058;25.586;2023-05-22T13:21:32;64752.31;;;22.27;79.90
7832;BME280;3961;42.058;25.586;2023-05-22T13:23:57;64743.19;;;22.21;82.03
7832;BME280;3961;42.058;25.586;2023-05-22T13:26:23;64764.44;;;22.42;80.62
7832;BME280;3961;42.058;25.586;2023-05-22T13:28:49;64736.16;;;22.15;81.17
7832;BME280;3961;42.058;25.586;2023-05-22T13:31:15;64743.19;;;22.21;80.46